Terminal Aerodrome Forecast
Issued by NWS Nashville, TN

Home | Current Version | Previous Version | Text Only | Print | Product List | Glossary On
Versions: 1 2 3 4 5 6 7 8 9 10 11 12 13 14 15 16 17 18 19 20
000
FTUS44 KOHX 220500
TAFBNA
TAF
KBNA 220534Z 2206/2306 15006KT P6SM BKN025
     FM221000 16008KT P6SM OVC015
     FM221200 16008KT P6SM OVC007
     FM221600 15010G20KT P6SM OVC015
     FM222100 16012G22KT 4SM -RA BR OVC015
     FM230100 17012G22KT 4SM -RA BR OVC007=

USA.gov is the U.S. government's official web portal to all federal, state and local government web resources and services.